sensor_id;sensor_type;location;lat;lon;timestamp;P1;durP1;ratioP1;P2;durP2;ratioP2
815;SDS011;25928;51.062;13.752;2022-08-01T00:02:09;3.60;;;3.30;;
815;SDS011;25928;51.062;13.752;2022-08-01T00:04:35;3.03;;;2.83;;
815;SDS011;25928;51.062;13.752;2022-08-01T00:07:00;3.33;;;3.10;;
815;SDS011;25928;51.062;13.752;2022-08-01T00:09:26;3.67;;;3.10;;
815;SDS011;25928;51.062;13.752;2022-08-01T00:11:52;3.43;;;3.00;;
815;SDS011;25928;51.062;13.752;2022-08-01T00:14:17;3.50;;;3.17;;
815;SDS011;25928;51.062;13.752;2022-08-01T00:16:43;3.97;;;3.00;;
815;SDS011;25928;51.062;13.752;2022-08-01T00:19:09;2.90;;;2.70;;
815;SDS011;25928;51.062;13.752;2022-08-01T00:24:28;3.50;;;3.10;;
815;SDS011;25928;51.062;13.752;2022-08-01T00:26:54;3.80;;;3.50;;
815;SDS011;25928;51.062;13.752;2022-08-01T00:29:20;3.80;;;3.50;;
815;SDS011;25928;51.062;13.752;2022-08-01T00:34:53;3.33;;;3.10;;
815;SDS011;25928;51.062;13.752;2022-08-01T00:40:46;3.63;;;3.33;;
815;SDS011;25928;51.062;13.752;2022-08-01T00:43:12;4.13;;;3.83;;
815;SDS011;25928;51.062;13.752;2022-08-01T00:45:38;3.90;;;3.57;;
815;SDS011;25928;51.062;13.752;2022-08-01T00:48:03;4.23;;;3.20;;
815;SDS011;25928;51.062;13.752;2022-08-01T00:50:29;3.50;;;3.13;;
815;SDS011;25928;51.062;13.752;2022-08-01T00:52:55;4.93;;;3.60;;
815;SDS011;25928;51.062;13.752;2022-08-01T00:55:23;4.43;;;3.40;;
815;SDS011;25928;51.062;13.752;2022-08-01T00:57:49;3.40;;;2.77;;
815;SDS011;25928;51.062;13.752;2022-08-01T01:00:15;5.00;;;4.33;;
815;SDS011;25928;51.062;13.752;2022-08-01T01:02:40;3.67;;;3.37;;
815;SDS011;25928;51.062;13.752;2022-08-01T01:05:06;4.43;;;4.03;;
815;SDS011;25928;51.062;13.752;2022-08-01T01:12:43;3.60;;;3.30;;
815;SDS011;25928;51.062;13.752;2022-08-01T01:15:15;3.90;;;3.60;;
815;SDS011;25928;51.062;13.752;2022-08-01T01:20:14;3.30;;;3.10;;
815;SDS011;25928;51.062;13.752;2022-08-01T01:28:25;3.50;;;3.20;;
815;SDS011;25928;51.062;13.752;2022-08-01T01:30:53;4.17;;;3.77;;
815;SDS011;25928;51.062;13.752;2022-08-01T01:33:22;3.67;;;3.37;;
815;SDS011;25928;51.062;13.752;2022-08-01T01:35:51;4.33;;;3.93;;
815;SDS011;25928;51.062;13.752;2022-08-01T01:38:22;3.83;;;3.53;;
815;SDS011;25928;51.062;13.752;2022-08-01T01:40:50;4.53;;;3.23;;
815;SDS011;25928;51.062;13.752;2022-08-01T01:43:17;4.03;;;3.73;;
815;SDS011;25928;51.062;13.752;2022-08-01T01:45:45;3.50;;;3.30;;
815;SDS011;25928;51.062;13.752;2022-08-01T01:48:13;6.50;;;3.57;;
815;SDS011;25928;51.062;13.752;2022-08-01T01:50:42;3.97;;;3.63;;
815;SDS011;25928;51.062;13.752;2022-08-01T01:53:10;3.87;;;3.50;;
815;SDS011;25928;51.062;13.752;2022-08-01T01:55:39;4.67;;;4.27;;
815;SDS011;25928;51.062;13.752;2022-08-01T02:01:34;4.77;;;4.40;;
815;SDS011;25928;51.062;13.752;2022-08-01T02:04:00;5.17;;;4.00;;
815;SDS011;25928;51.062;13.752;2022-08-01T02:06:27;4.20;;;3.80;;
815;SDS011;25928;51.062;13.752;2022-08-01T02:08:54;5.40;;;4.30;;
815;SDS011;25928;51.062;13.752;2022-08-01T02:11:20;4.53;;;4.13;;
815;SDS011;25928;51.062;13.752;2022-08-01T02:13:55;4.23;;;3.83;;
815;SDS011;25928;51.062;13.752;2022-08-01T02:16:24;4.73;;;4.33;;
815;SDS011;25928;51.062;13.752;2022-08-01T02:18:52;4.90;;;4.50;;
815;SDS011;25928;51.062;13.752;2022-08-01T02:21:20;4.77;;;4.37;;
815;SDS011;25928;51.062;13.752;2022-08-01T02:23:51;6.57;;;4.37;;
815;SDS011;25928;51.062;13.752;2022-08-01T02:26:18;5.50;;;4.40;;
815;SDS011;25928;51.062;13.752;2022-08-01T02:28:47;4.87;;;4.30;;
815;SDS011;25928;51.062;13.752;2022-08-01T02:31:19;4.90;;;4.43;;
815;SDS011;25928;51.062;13.752;2022-08-01T02:33:50;5.27;;;4.67;;
815;SDS011;25928;51.062;13.752;2022-08-01T02:36:25;4.47;;;4.07;;
815;SDS011;25928;51.062;13.752;2022-08-01T02:38:52;4.10;;;3.80;;
815;SDS011;25928;51.062;13.752;2022-08-01T02:41:21;4.60;;;3.87;;
815;SDS011;25928;51.062;13.752;2022-08-01T02:43:51;4.40;;;4.10;;
815;SDS011;25928;51.062;13.752;2022-08-01T02:46:22;4.43;;;4.03;;
815;SDS011;25928;51.062;13.752;2022-08-01T02:48:52;4.00;;;3.70;;
815;SDS011;25928;51.062;13.752;2022-08-01T02:51:21;3.80;;;3.40;;
815;SDS011;25928;51.062;13.752;2022-08-01T02:53:48;4.27;;;3.97;;
815;SDS011;25928;51.062;13.752;2022-08-01T02:56:15;4.50;;;4.10;;
815;SDS011;25928;51.062;13.752;2022-08-01T02:58:43;4.57;;;4.27;;
815;SDS011;25928;51.062;13.752;2022-08-01T03:01:10;4.30;;;3.50;;
815;SDS011;25928;51.062;13.752;2022-08-01T03:03:38;5.13;;;4.10;;
815;SDS011;25928;51.062;13.752;2022-08-01T03:06:04;3.63;;;3.43;;
815;SDS011;25928;51.062;13.752;2022-08-01T03:08:31;4.63;;;4.10;;
815;SDS011;25928;51.062;13.752;2022-08-01T03:10:59;3.87;;;3.53;;
815;SDS011;25928;51.062;13.752;2022-08-01T03:13:26;4.27;;;3.97;;
815;SDS011;25928;51.062;13.752;2022-08-01T03:15:53;4.43;;;4.13;;
815;SDS011;25928;51.062;13.752;2022-08-01T03:18:20;5.97;;;3.73;;
815;SDS011;25928;51.062;13.752;2022-08-01T03:20:49;4.10;;;3.80;;
815;SDS011;25928;51.062;13.752;2022-08-01T03:23:17;4.30;;;4.00;;
815;SDS011;25928;51.062;13.752;2022-08-01T03:25:45;5.63;;;4.27;;
815;SDS011;25928;51.062;13.752;2022-08-01T03:28:13;4.03;;;3.73;;
815;SDS011;25928;51.062;13.752;2022-08-01T03:30:39;4.80;;;4.50;;
815;SDS011;25928;51.062;13.752;2022-08-01T03:33:07;4.23;;;3.80;;
815;SDS011;25928;51.062;13.752;2022-08-01T03:35:34;4.33;;;3.93;;
815;SDS011;25928;51.062;13.752;2022-08-01T03:38:04;4.50;;;4.10;;
815;SDS011;25928;51.062;13.752;2022-08-01T03:41:19;4.63;;;3.60;;
815;SDS011;25928;51.062;13.752;2022-08-01T03:46:01;4.43;;;3.93;;
815;SDS011;25928;51.062;13.752;2022-08-01T03:48:33;5.00;;;4.30;;
815;SDS011;25928;51.062;13.752;2022-08-01T03:51:05;4.47;;;4.07;;
815;SDS011;25928;51.062;13.752;2022-08-01T03:53:31;4.73;;;4.33;;
815;SDS011;25928;51.062;13.752;2022-08-01T03:55:59;4.47;;;3.67;;
815;SDS011;25928;51.062;13.752;2022-08-01T03:58:28;3.93;;;3.63;;
815;SDS011;25928;51.062;13.752;2022-08-01T04:00:54;4.07;;;3.77;;
815;SDS011;25928;51.062;13.752;2022-08-01T04:03:21;4.50;;;4.10;;
815;SDS011;25928;51.062;13.752;2022-08-01T04:05:47;5.43;;;3.20;;
815;SDS011;25928;51.062;13.752;2022-08-01T04:08:13;4.13;;;3.83;;
815;SDS011;25928;51.062;13.752;2022-08-01T04:10:38;4.00;;;3.60;;
815;SDS011;25928;51.062;13.752;2022-08-01T04:13:04;4.20;;;3.80;;
815;SDS011;25928;51.062;13.752;2022-08-01T04:15:30;4.70;;;4.30;;
815;SDS011;25928;51.062;13.752;2022-08-01T04:17:55;4.47;;;4.07;;
815;SDS011;25928;51.062;13.752;2022-08-01T04:20:21;4.53;;;4.20;;
815;SDS011;25928;51.062;13.752;2022-08-01T04:22:47;5.43;;;3.77;;
815;SDS011;25928;51.062;13.752;2022-08-01T04:25:17;4.70;;;4.20;;
815;SDS011;25928;51.062;13.752;2022-08-01T04:27:53;4.63;;;4.23;;
815;SDS011;25928;51.062;13.752;2022-08-01T04:30:20;3.73;;;3.43;;
815;SDS011;25928;51.062;13.752;2022-08-01T04:32:50;5.30;;;4.10;;
815;SDS011;25928;51.062;13.752;2022-08-01T04:35:20;4.70;;;4.13;;
815;SDS011;25928;51.062;13.752;2022-08-01T04:37:46;4.30;;;3.90;;
815;SDS011;25928;51.062;13.752;2022-08-01T04:40:13;3.90;;;3.63;;
815;SDS011;25928;51.062;13.752;2022-08-01T04:42:39;4.97;;;3.60;;
815;SDS011;25928;51.062;13.752;2022-08-01T04:45:05;4.10;;;3.80;;
815;SDS011;25928;51.062;13.752;2022-08-01T04:47:33;4.50;;;4.10;;
815;SDS011;25928;51.062;13.752;2022-08-01T04:50:03;5.30;;;3.87;;
815;SDS011;25928;51.062;13.752;2022-08-01T04:52:32;4.47;;;4.17;;
815;SDS011;25928;51.062;13.752;2022-08-01T04:54:59;4.73;;;4.20;;
815;SDS011;25928;51.062;13.752;2022-08-01T04:57:25;4.60;;;4.20;;
815;SDS011;25928;51.062;13.752;2022-08-01T04:59:51;5.17;;;4.77;;
815;SDS011;25928;51.062;13.752;2022-08-01T05:02:21;4.40;;;4.10;;
815;SDS011;25928;51.062;13.752;2022-08-01T05:04:47;6.93;;;4.77;;
815;SDS011;25928;51.062;13.752;2022-08-01T05:07:13;5.17;;;4.30;;
815;SDS011;25928;51.062;13.752;2022-08-01T05:09:40;4.80;;;4.40;;
815;SDS011;25928;51.062;13.752;2022-08-01T05:12:10;4.83;;;4.33;;
815;SDS011;25928;51.062;13.752;2022-08-01T05:14:36;5.03;;;4.33;;
815;SDS011;25928;51.062;13.752;2022-08-01T05:17:03;5.53;;;4.50;;
815;SDS011;25928;51.062;13.752;2022-08-01T05:19:31;4.83;;;4.33;;
815;SDS011;25928;51.062;13.752;2022-08-01T05:22:02;5.40;;;4.40;;
815;SDS011;25928;51.062;13.752;2022-08-01T05:24:36;5.50;;;4.30;;
815;SDS011;25928;51.062;13.752;2022-08-01T05:27:03;6.63;;;4.87;;
815;SDS011;25928;51.062;13.752;2022-08-01T05:29:29;6.10;;;4.43;;
815;SDS011;25928;51.062;13.752;2022-08-01T05:31:55;6.83;;;4.13;;
815;SDS011;25928;51.062;13.752;2022-08-01T05:34:22;6.03;;;4.20;;
815;SDS011;25928;51.062;13.752;2022-08-01T05:36:47;4.90;;;4.10;;
815;SDS011;25928;51.062;13.752;2022-08-01T05:39:13;7.30;;;3.67;;
815;SDS011;25928;51.062;13.752;2022-08-01T05:41:39;8.73;;;3.20;;
815;SDS011;25928;51.062;13.752;2022-08-01T05:44:06;4.40;;;4.03;;
815;SDS011;25928;51.062;13.752;2022-08-01T05:46:32;4.20;;;3.80;;
815;SDS011;25928;51.062;13.752;2022-08-01T05:48:58;4.63;;;4.03;;
815;SDS011;25928;51.062;13.752;2022-08-01T05:51:28;4.73;;;3.57;;
815;SDS011;25928;51.062;13.752;2022-08-01T05:53:54;5.80;;;3.67;;
815;SDS011;25928;51.062;13.752;2022-08-01T05:56:20;5.13;;;3.73;;
815;SDS011;25928;51.062;13.752;2022-08-01T05:58:46;3.57;;;3.37;;
815;SDS011;25928;51.062;13.752;2022-08-01T06:01:13;4.37;;;3.67;;
815;SDS011;25928;51.062;13.752;2022-08-01T06:03:38;3.70;;;3.40;;
815;SDS011;25928;51.062;13.752;2022-08-01T06:06:04;3.63;;;3.43;;
815;SDS011;25928;51.062;13.752;2022-08-01T06:08:30;5.30;;;3.80;;
815;SDS011;25928;51.062;13.752;2022-08-01T06:10:56;5.73;;;3.50;;
815;SDS011;25928;51.062;13.752;2022-08-01T06:13:21;4.00;;;3.40;;
815;SDS011;25928;51.062;13.752;2022-08-01T06:15:47;3.70;;;3.40;;
815;SDS011;25928;51.062;13.752;2022-08-01T06:18:13;3.87;;;3.57;;
815;SDS011;25928;51.062;13.752;2022-08-01T06:20:39;3.97;;;3.60;;
815;SDS011;25928;51.062;13.752;2022-08-01T06:23:05;3.60;;;3.30;;
815;SDS011;25928;51.062;13.752;2022-08-01T06:25:31;5.43;;;3.87;;
815;SDS011;25928;51.062;13.752;2022-08-01T06:27:58;3.87;;;3.57;;
815;SDS011;25928;51.062;13.752;2022-08-01T06:30:24;4.13;;;3.70;;
815;SDS011;25928;51.062;13.752;2022-08-01T06:32:50;4.13;;;3.73;;
815;SDS011;25928;51.062;13.752;2022-08-01T06:35:15;4.10;;;3.80;;
815;SDS011;25928;51.062;13.752;2022-08-01T06:37:41;5.00;;;4.20;;
815;SDS011;25928;51.062;13.752;2022-08-01T06:40:08;4.67;;;3.97;;
815;SDS011;25928;51.062;13.752;2022-08-01T06:42:35;4.53;;;4.00;;
815;SDS011;25928;51.062;13.752;2022-08-01T06:45:02;4.47;;;4.07;;
815;SDS011;25928;51.062;13.752;2022-08-01T06:47:32;4.47;;;4.07;;
815;SDS011;25928;51.062;13.752;2022-08-01T06:49:57;4.67;;;3.90;;
815;SDS011;25928;51.062;13.752;2022-08-01T06:52:23;3.63;;;3.33;;
815;SDS011;25928;51.062;13.752;2022-08-01T06:54:49;3.83;;;3.17;;
815;SDS011;25928;51.062;13.752;2022-08-01T06:57:15;3.53;;;3.27;;
815;SDS011;25928;51.062;13.752;2022-08-01T06:59:40;6.00;;;4.00;;
815;SDS011;25928;51.062;13.752;2022-08-01T07:02:06;4.33;;;4.03;;
815;SDS011;25928;51.062;13.752;2022-08-01T07:04:32;5.23;;;4.80;;
815;SDS011;25928;51.062;13.752;2022-08-01T07:06:58;5.27;;;4.87;;
815;SDS011;25928;51.062;13.752;2022-08-01T07:09:24;6.00;;;5.57;;
815;SDS011;25928;51.062;13.752;2022-08-01T07:11:51;6.87;;;6.27;;
815;SDS011;25928;51.062;13.752;2022-08-01T07:14:17;5.50;;;5.10;;
815;SDS011;25928;51.062;13.752;2022-08-01T07:16:44;5.53;;;5.10;;
815;SDS011;25928;51.062;13.752;2022-08-01T07:19:10;5.73;;;5.33;;
815;SDS011;25928;51.062;13.752;2022-08-01T07:21:35;5.57;;;5.10;;
815;SDS011;25928;51.062;13.752;2022-08-01T07:24:03;5.47;;;5.03;;
815;SDS011;25928;51.062;13.752;2022-08-01T07:26:29;5.70;;;5.20;;
815;SDS011;25928;51.062;13.752;2022-08-01T07:28:55;7.80;;;5.80;;
815;SDS011;25928;51.062;13.752;2022-08-01T07:31:21;5.93;;;5.43;;
815;SDS011;25928;51.062;13.752;2022-08-01T07:33:47;6.80;;;5.43;;
815;SDS011;25928;51.062;13.752;2022-08-01T07:36:13;5.50;;;5.10;;
815;SDS011;25928;51.062;13.752;2022-08-01T07:38:39;6.57;;;5.93;;
815;SDS011;25928;51.062;13.752;2022-08-01T07:41:05;6.10;;;5.60;;
815;SDS011;25928;51.062;13.752;2022-08-01T07:43:30;6.70;;;6.10;;
815;SDS011;25928;51.062;13.752;2022-08-01T07:45:56;8.80;;;5.33;;
815;SDS011;25928;51.062;13.752;2022-08-01T07:48:22;5.30;;;4.90;;
815;SDS011;25928;51.062;13.752;2022-08-01T07:50:50;5.83;;;5.43;;
815;SDS011;25928;51.062;13.752;2022-08-01T07:53:16;6.27;;;5.77;;
815;SDS011;25928;51.062;13.752;2022-08-01T07:55:42;5.83;;;5.33;;
815;SDS011;25928;51.062;13.752;2022-08-01T07:58:07;5.23;;;4.83;;
815;SDS011;25928;51.062;13.752;2022-08-01T08:00:33;5.80;;;5.33;;
815;SDS011;25928;51.062;13.752;2022-08-01T08:02:59;6.33;;;5.47;;
815;SDS011;25928;51.062;13.752;2022-08-01T08:05:27;4.60;;;4.30;;
815;SDS011;25928;51.062;13.752;2022-08-01T08:07:53;4.83;;;4.43;;
815;SDS011;25928;51.062;13.752;2022-08-01T08:10:18;4.37;;;4.07;;
815;SDS011;25928;51.062;13.752;2022-08-01T08:12:44;5.27;;;3.60;;
815;SDS011;25928;51.062;13.752;2022-08-01T08:15:11;4.60;;;3.77;;
815;SDS011;25928;51.062;13.752;2022-08-01T08:17:38;3.80;;;3.50;;
815;SDS011;25928;51.062;13.752;2022-08-01T08:20:07;3.97;;;3.67;;
815;SDS011;25928;51.062;13.752;2022-08-01T08:22:34;3.80;;;3.40;;
815;SDS011;25928;51.062;13.752;2022-08-01T08:25:00;3.43;;;3.13;;
815;SDS011;25928;51.062;13.752;2022-08-01T08:27:26;3.80;;;3.50;;
815;SDS011;25928;51.062;13.752;2022-08-01T08:29:51;8.57;;;2.87;;
815;SDS011;25928;51.062;13.752;2022-08-01T08:32:17;3.20;;;3.00;;
815;SDS011;25928;51.062;13.752;2022-08-01T08:34:43;4.10;;;2.57;;
815;SDS011;25928;51.062;13.752;2022-08-01T08:37:08;5.03;;;2.77;;
815;SDS011;25928;51.062;13.752;2022-08-01T08:39:35;3.20;;;3.00;;
815;SDS011;25928;51.062;13.752;2022-08-01T08:42:04;2.73;;;2.53;;
815;SDS011;25928;51.062;13.752;2022-08-01T08:44:31;2.80;;;2.60;;
815;SDS011;25928;51.062;13.752;2022-08-01T08:46:57;4.60;;;2.47;;
815;SDS011;25928;51.062;13.752;2022-08-01T08:49:26;2.90;;;2.70;;
815;SDS011;25928;51.062;13.752;2022-08-01T08:51:53;3.47;;;2.23;;
815;SDS011;25928;51.062;13.752;2022-08-01T08:54:23;3.83;;;3.10;;
815;SDS011;25928;51.062;13.752;2022-08-01T08:56:50;3.33;;;3.03;;
815;SDS011;25928;51.062;13.752;2022-08-01T08:59:17;3.00;;;2.70;;
815;SDS011;25928;51.062;13.752;2022-08-01T09:01:43;2.67;;;2.47;;
815;SDS011;25928;51.062;13.752;2022-08-01T09:04:09;1.90;;;1.80;;
815;SDS011;25928;51.062;13.752;2022-08-01T09:06:35;2.53;;;2.23;;
815;SDS011;25928;51.062;13.752;2022-08-01T09:09:02;2.53;;;2.33;;
815;SDS011;25928;51.062;13.752;2022-08-01T09:11:28;2.30;;;2.10;;
815;SDS011;25928;51.062;13.752;2022-08-01T09:16:59;2.60;;;2.40;;
815;SDS011;25928;51.062;13.752;2022-08-01T09:19:38;4.10;;;2.50;;
815;SDS011;25928;51.062;13.752;2022-08-01T09:22:04;2.43;;;2.30;;
815;SDS011;25928;51.062;13.752;2022-08-01T09:24:33;2.70;;;2.50;;
815;SDS011;25928;51.062;13.752;2022-08-01T09:26:59;3.03;;;2.83;;
815;SDS011;25928;51.062;13.752;2022-08-01T09:29:27;3.63;;;3.37;;
815;SDS011;25928;51.062;13.752;2022-08-01T09:31:54;3.33;;;3.03;;
815;SDS011;25928;51.062;13.752;2022-08-01T09:34:28;3.07;;;2.77;;
815;SDS011;25928;51.062;13.752;2022-08-01T09:36:56;4.10;;;3.30;;
815;SDS011;25928;51.062;13.752;2022-08-01T09:39:26;4.97;;;2.90;;
815;SDS011;25928;51.062;13.752;2022-08-01T09:41:54;3.63;;;3.33;;
815;SDS011;25928;51.062;13.752;2022-08-01T09:44:38;3.07;;;2.77;;
815;SDS011;25928;51.062;13.752;2022-08-01T09:47:05;4.17;;;2.40;;
815;SDS011;25928;51.062;13.752;2022-08-01T09:49:32;2.93;;;2.73;;
815;SDS011;25928;51.062;13.752;2022-08-01T09:52:22;2.67;;;2.23;;
815;SDS011;25928;51.062;13.752;2022-08-01T09:54:57;2.47;;;2.37;;
815;SDS011;25928;51.062;13.752;2022-08-01T09:57:23;2.60;;;2.17;;
815;SDS011;25928;51.062;13.752;2022-08-01T09:59:50;2.63;;;2.43;;
815;SDS011;25928;51.062;13.752;2022-08-01T10:05:03;2.00;;;1.90;;
815;SDS011;25928;51.062;13.752;2022-08-01T10:07:31;2.33;;;2.13;;
815;SDS011;25928;51.062;13.752;2022-08-01T10:10:10;2.33;;;2.13;;
815;SDS011;25928;51.062;13.752;2022-08-01T10:12:38;2.53;;;2.33;;
815;SDS011;25928;51.062;13.752;2022-08-01T10:15:05;2.90;;;2.27;;
815;SDS011;25928;51.062;13.752;2022-08-01T10:17:31;2.83;;;1.80;;
815;SDS011;25928;51.062;13.752;2022-08-01T10:19:58;4.23;;;2.07;;
815;SDS011;25928;51.062;13.752;2022-08-01T10:22:27;2.27;;;2.07;;
815;SDS011;25928;51.062;13.752;2022-08-01T10:24:56;5.10;;;2.27;;
815;SDS011;25928;51.062;13.752;2022-08-01T10:27:23;2.13;;;2.03;;
815;SDS011;25928;51.062;13.752;2022-08-01T10:32:17;2.60;;;1.77;;
815;SDS011;25928;51.062;13.752;2022-08-01T10:34:42;1.80;;;1.70;;
815;SDS011;25928;51.062;13.752;2022-08-01T10:37:08;1.60;;;1.50;;
815;SDS011;25928;51.062;13.752;2022-08-01T10:39:35;2.00;;;1.90;;
815;SDS011;25928;51.062;13.752;2022-08-01T10:42:01;2.13;;;1.73;;
815;SDS011;25928;51.062;13.752;2022-08-01T10:44:28;1.73;;;1.63;;
815;SDS011;25928;51.062;13.752;2022-08-01T10:47:06;2.30;;;1.73;;
815;SDS011;25928;51.062;13.752;2022-08-01T10:49:38;1.50;;;1.40;;
815;SDS011;25928;51.062;13.752;2022-08-01T10:52:19;1.40;;;1.30;;
815;SDS011;25928;51.062;13.752;2022-08-01T10:54:45;1.57;;;1.30;;
815;SDS011;25928;51.062;13.752;2022-08-01T10:57:12;1.40;;;1.30;;
815;SDS011;25928;51.062;13.752;2022-08-01T10:59:51;2.00;;;1.83;;
815;SDS011;25928;51.062;13.752;2022-08-01T11:07:51;1.63;;;0.80;;
815;SDS011;25928;51.062;13.752;2022-08-01T11:13:03;1.60;;;1.17;;
815;SDS011;25928;51.062;13.752;2022-08-01T11:15:32;1.07;;;0.80;;
815;SDS011;25928;51.062;13.752;2022-08-01T11:18:29;1.83;;;1.27;;
815;SDS011;25928;51.062;13.752;2022-08-01T11:20:55;2.47;;;1.40;;
815;SDS011;25928;51.062;13.752;2022-08-01T11:23:23;2.30;;;1.50;;
815;SDS011;25928;51.062;13.752;2022-08-01T11:28:17;3.70;;;2.83;;
815;SDS011;25928;51.062;13.752;2022-08-01T11:30:53;1.93;;;1.17;;
815;SDS011;25928;51.062;13.752;2022-08-01T11:41:32;1.73;;;0.80;;
815;SDS011;25928;51.062;13.752;2022-08-01T11:44:01;2.80;;;0.80;;
815;SDS011;25928;51.062;13.752;2022-08-01T11:54:32;3.10;;;1.30;;
815;SDS011;25928;51.062;13.752;2022-08-01T11:57:00;3.20;;;1.17;;
815;SDS011;25928;51.062;13.752;2022-08-01T11:59:41;3.80;;;1.23;;
815;SDS011;25928;51.062;13.752;2022-08-01T12:02:24;1.73;;;1.33;;
815;SDS011;25928;51.062;13.752;2022-08-01T12:07:21;1.33;;;1.23;;
815;SDS011;25928;51.062;13.752;2022-08-01T12:09:51;1.20;;;1.10;;
815;SDS011;25928;51.062;13.752;2022-08-01T12:12:22;4.80;;;1.30;;
815;SDS011;25928;51.062;13.752;2022-08-01T12:14:53;3.83;;;1.50;;
815;SDS011;25928;51.062;13.752;2022-08-01T12:17:20;4.03;;;1.43;;
815;SDS011;25928;51.062;13.752;2022-08-01T12:19:53;2.20;;;1.50;;
815;SDS011;25928;51.062;13.752;2022-08-01T12:22:21;3.40;;;1.40;;
815;SDS011;25928;51.062;13.752;2022-08-01T12:24:48;1.30;;;1.13;;
815;SDS011;25928;51.062;13.752;2022-08-01T12:27:23;1.30;;;1.10;;
815;SDS011;25928;51.062;13.752;2022-08-01T12:29:50;2.23;;;1.30;;
815;SDS011;25928;51.062;13.752;2022-08-01T12:32:23;1.80;;;1.27;;
815;SDS011;25928;51.062;13.752;2022-08-01T12:34:57;1.57;;;1.33;;
815;SDS011;25928;51.062;13.752;2022-08-01T12:40:41;2.70;;;1.20;;
815;SDS011;25928;51.062;13.752;2022-08-01T12:43:09;2.10;;;1.20;;
815;SDS011;25928;51.062;13.752;2022-08-01T12:45:40;1.77;;;1.10;;
815;SDS011;25928;51.062;13.752;2022-08-01T12:48:09;1.20;;;1.10;;
815;SDS011;25928;51.062;13.752;2022-08-01T12:50:36;1.67;;;1.17;;
815;SDS011;25928;51.062;13.752;2022-08-01T12:53:04;1.20;;;1.10;;
815;SDS011;25928;51.062;13.752;2022-08-01T12:55:30;1.70;;;1.20;;
815;SDS011;25928;51.062;13.752;2022-08-01T12:58:06;3.00;;;1.40;;
815;SDS011;25928;51.062;13.752;2022-08-01T13:00:36;1.53;;;1.10;;
815;SDS011;25928;51.062;13.752;2022-08-01T13:03:05;0.93;;;0.83;;
815;SDS011;25928;51.062;13.752;2022-08-01T13:05:44;1.77;;;0.90;;
815;SDS011;25928;51.062;13.752;2022-08-01T13:10:43;2.23;;;1.27;;
815;SDS011;25928;51.062;13.752;2022-08-01T13:13:10;1.13;;;1.03;;
815;SDS011;25928;51.062;13.752;2022-08-01T13:15:38;1.37;;;1.10;;
815;SDS011;25928;51.062;13.752;2022-08-01T13:26:39;1.07;;;0.90;;
815;SDS011;25928;51.062;13.752;2022-08-01T13:29:15;0.80;;;0.80;;
815;SDS011;25928;51.062;13.752;2022-08-01T13:31:42;1.00;;;0.80;;
815;SDS011;25928;51.062;13.752;2022-08-01T13:34:08;0.80;;;0.60;;
815;SDS011;25928;51.062;13.752;2022-08-01T13:36:34;0.90;;;0.60;;
815;SDS011;25928;51.062;13.752;2022-08-01T13:39:00;2.60;;;0.80;;
815;SDS011;25928;51.062;13.752;2022-08-01T13:41:45;1.20;;;0.70;;
815;SDS011;25928;51.062;13.752;2022-08-01T13:44:11;1.63;;;0.90;;
815;SDS011;25928;51.062;13.752;2022-08-01T13:46:37;1.53;;;0.90;;
815;SDS011;25928;51.062;13.752;2022-08-01T13:49:03;0.80;;;0.70;;
815;SDS011;25928;51.062;13.752;2022-08-01T13:51:30;1.43;;;0.97;;
815;SDS011;25928;51.062;13.752;2022-08-01T13:53:57;1.07;;;0.73;;
815;SDS011;25928;51.062;13.752;2022-08-01T13:56:23;2.07;;;0.70;;
815;SDS011;25928;51.062;13.752;2022-08-01T13:58:49;2.20;;;0.87;;
815;SDS011;25928;51.062;13.752;2022-08-01T14:01:15;2.13;;;0.80;;
815;SDS011;25928;51.062;13.752;2022-08-01T14:03:41;1.07;;;0.90;;
815;SDS011;25928;51.062;13.752;2022-08-01T14:06:06;2.73;;;1.50;;
815;SDS011;25928;51.062;13.752;2022-08-01T14:08:32;1.00;;;0.90;;
815;SDS011;25928;51.062;13.752;2022-08-01T14:10:58;1.50;;;0.90;;
815;SDS011;25928;51.062;13.752;2022-08-01T14:13:24;1.17;;;1.07;;
815;SDS011;25928;51.062;13.752;2022-08-01T14:15:51;1.13;;;1.03;;
815;SDS011;25928;51.062;13.752;2022-08-01T14:18:16;1.30;;;1.13;;
815;SDS011;25928;51.062;13.752;2022-08-01T14:20:42;2.33;;;1.37;;
815;SDS011;25928;51.062;13.752;2022-08-01T14:23:08;1.57;;;1.23;;
815;SDS011;25928;51.062;13.752;2022-08-01T14:25:38;1.13;;;1.03;;
815;SDS011;25928;51.062;13.752;2022-08-01T14:28:05;1.70;;;1.03;;
815;SDS011;25928;51.062;13.752;2022-08-01T14:31:13;1.17;;;1.07;;
815;SDS011;25928;51.062;13.752;2022-08-01T14:33:42;1.27;;;1.17;;
815;SDS011;25928;51.062;13.752;2022-08-01T14:36:08;1.30;;;0.83;;
815;SDS011;25928;51.062;13.752;2022-08-01T14:38:34;1.20;;;1.10;;
815;SDS011;25928;51.062;13.752;2022-08-01T14:41:00;2.57;;;1.23;;
815;SDS011;25928;51.062;13.752;2022-08-01T14:43:31;1.73;;;0.90;;
815;SDS011;25928;51.062;13.752;2022-08-01T14:45:57;2.83;;;1.13;;
815;SDS011;25928;51.062;13.752;2022-08-01T14:48:23;2.50;;;1.00;;
815;SDS011;25928;51.062;13.752;2022-08-01T14:50:48;2.40;;;1.57;;
815;SDS011;25928;51.062;13.752;2022-08-01T14:53:15;1.73;;;1.00;;
815;SDS011;25928;51.062;13.752;2022-08-01T14:55:41;4.80;;;1.30;;
815;SDS011;25928;51.062;13.752;2022-08-01T14:58:06;1.30;;;1.20;;
815;SDS011;25928;51.062;13.752;2022-08-01T15:00:32;1.13;;;1.03;;
815;SDS011;25928;51.062;13.752;2022-08-01T15:02:57;1.20;;;1.10;;
815;SDS011;25928;51.062;13.752;2022-08-01T15:05:23;1.10;;;1.00;;
815;SDS011;25928;51.062;13.752;2022-08-01T15:07:49;2.10;;;1.17;;
815;SDS011;25928;51.062;13.752;2022-08-01T15:10:14;1.10;;;1.00;;
815;SDS011;25928;51.062;13.752;2022-08-01T15:12:41;1.40;;;1.23;;
815;SDS011;25928;51.062;13.752;2022-08-01T15:15:08;2.20;;;0.80;;
815;SDS011;25928;51.062;13.752;2022-08-01T15:17:34;3.60;;;1.07;;
815;SDS011;25928;51.062;13.752;2022-08-01T15:20:00;2.50;;;1.23;;
815;SDS011;25928;51.062;13.752;2022-08-01T15:22:30;1.47;;;1.33;;
815;SDS011;25928;51.062;13.752;2022-08-01T15:24:57;1.10;;;1.00;;
815;SDS011;25928;51.062;13.752;2022-08-01T15:27:25;1.20;;;1.00;;
815;SDS011;25928;51.062;13.752;2022-08-01T15:29:51;1.13;;;1.00;;
815;SDS011;25928;51.062;13.752;2022-08-01T15:32:18;1.73;;;1.50;;
815;SDS011;25928;51.062;13.752;2022-08-01T15:34:44;7.00;;;1.50;;
815;SDS011;25928;51.062;13.752;2022-08-01T15:37:10;1.13;;;1.03;;
815;SDS011;25928;51.062;13.752;2022-08-01T15:39:37;1.87;;;1.20;;
815;SDS011;25928;51.062;13.752;2022-08-01T15:42:07;1.87;;;1.30;;
815;SDS011;25928;51.062;13.752;2022-08-01T15:44:35;1.73;;;1.43;;
815;SDS011;25928;51.062;13.752;2022-08-01T15:47:01;1.30;;;1.10;;
815;SDS011;25928;51.062;13.752;2022-08-01T15:49:27;1.87;;;1.30;;
815;SDS011;25928;51.062;13.752;2022-08-01T15:51:53;3.07;;;1.10;;
815;SDS011;25928;51.062;13.752;2022-08-01T15:54:19;4.73;;;1.40;;
815;SDS011;25928;51.062;13.752;2022-08-01T15:56:44;3.80;;;1.00;;
815;SDS011;25928;51.062;13.752;2022-08-01T15:59:10;1.30;;;1.03;;
815;SDS011;25928;51.062;13.752;2022-08-01T16:01:36;1.20;;;1.10;;
815;SDS011;25928;51.062;13.752;2022-08-01T16:04:02;1.47;;;1.37;;
815;SDS011;25928;51.062;13.752;2022-08-01T16:06:29;1.53;;;1.43;;
815;SDS011;25928;51.062;13.752;2022-08-01T16:08:54;1.53;;;1.43;;
815;SDS011;25928;51.062;13.752;2022-08-01T16:11:20;2.57;;;1.23;;
815;SDS011;25928;51.062;13.752;2022-08-01T16:13:48;1.20;;;1.00;;
815;SDS011;25928;51.062;13.752;2022-08-01T16:16:13;1.80;;;1.47;;
815;SDS011;25928;51.062;13.752;2022-08-01T16:18:43;2.97;;;1.40;;
815;SDS011;25928;51.062;13.752;2022-08-01T16:21:08;1.43;;;1.33;;
815;SDS011;25928;51.062;13.752;2022-08-01T16:23:38;3.00;;;1.27;;
815;SDS011;25928;51.062;13.752;2022-08-01T16:26:07;1.00;;;0.90;;